| time (UTC) | temp F | wind direction | speed knots | gust knots | rain 1hr in | rain 24hr in | rain mn in | humidity % | barometer mb |
| 20260904031034 | 78 | 190 | 0.0 | 0.0 | 0.00 | 0.00 | 0.00 | 72 | 1013.2 |
| 20260904030532 | 78 | 190 | 0.0 | 0.0 | 0.00 | 0.00 | 0.00 | 71 | 1013.1 |
| 20260904030103 | 79 | 0 | 0.0 | 0.0 | 0.00 | 0.00 | 0.00 | 71 | 1011.1 |
| 20260904030032 | 79 | 190 | 0.0 | 0.0 | 0.00 | 0.00 | 0.00 | 71 | 1013.2 |
| 20260904025531 | 79 | 190 | 0.0 | 0.0 | 0.00 | 0.00 | 0.00 | 70 | 1013.0 |
| 20260904025031 | 79 | 190 | 0.0 | 0.0 | 0.00 | 0.00 | 0.00 | 71 | 1012.9 |
| 20260904024605 | 79 | 0 | 0.0 | 0.0 | 0.00 | 0.00 | 0.00 | 69 | 1010.9 |
| 20260904024531 | 79 | 190 | 0.0 | 0.0 | 0.00 | 0.00 | 0.00 | 70 | 1012.8 |
| 20260904024030 | 79 | 190 | 0.0 | 0.0 | 0.00 | 0.00 | 0.00 | 70 | 1012.9 |
| 20260904023533 | 79 | 190 | 0.0 | 0.0 | 0.00 | 0.00 | 0.00 | 70 | 1013.0 |
| 20260904023104 | 79 | 0 | 0.0 | 0.0 | 0.00 | 0.00 | 0.00 | 69 | 1011.0 |
| 20260904023031 | 79 | 190 | 0.0 | 0.0 | 0.00 | 0.00 | 0.00 | 69 | 1012.9 |
| 20260904022531 | 80 | 190 | 0.0 | 0.0 | 0.00 | 0.00 | 0.00 | 68 | 1012.8 |
| 20260904022033 | 80 | 190 | 0.0 | 0.0 | 0.00 | 0.00 | 0.00 | 66 | 1012.9 |
| 20260904021608 | 81 | 0 | 0.0 | 0.0 | 0.00 | 0.00 | 0.00 | 65 | 1010.7 |
| 20260904021532 | 81 | 190 | 0.0 | 0.0 | 0.00 | 0.00 | 0.00 | 65 | 1012.8 |
| 20260904021030 | 81 | 190 | 0.0 | 0.0 | 0.00 | 0.00 | 0.00 | 64 | 1012.7 |
| 20260904020530 | 81 | 190 | 0.0 | 0.0 | 0.00 | 0.00 | 0.00 | 64 | 1012.6 |
| 20260904020107 | 81 | 0 | 0.0 | 0.9 | 0.00 | 0.00 | 0.00 | 63 | 1010.6 |
| 20260904020030 | 81 | 190 | 0.0 | 0.9 | 0.00 | 0.00 | 0.00 | 64 | 1012.5 |
| 20260904015529 | 81 | 190 | 0.0 | 0.9 | 0.00 | 0.00 | 0.00 | 63 | 1012.3 |
| 20260904015029 | 81 | 190 | 0.0 | 0.9 | 0.00 | 0.00 | 0.00 | 63 | 1012.2 |
| 20260904014615 | 82 | 0 | 0.0 | 0.0 | 0.00 | 0.00 | 0.00 | 61 | 1010.2 |
| 20260904014536 | 82 | 190 | 0.0 | 0.0 | 0.00 | 0.00 | 0.00 | 61 | 1012.1 |
| 20260904014032 | 82 | 190 | 0.0 | 0.0 | 0.00 | 0.00 | 0.00 | 60 | 1012.0 |
| 20260904013533 | 82 | 190 | 0.0 | 0.0 | 0.00 | 0.00 | 0.00 | 59 | 1011.9 |
| 20260904013101 | 83 | 0 | 0.0 | 1.7 | 0.00 | 0.00 | 0.00 | 58 | 1009.9 |
| 20260904013033 | 83 | 190 | 0.0 | 1.7 | 0.00 | 0.00 | 0.00 | 58 | 1011.8 |
| 20260904012529 | 83 | 190 | 0.0 | 1.7 | 0.00 | 0.00 | 0.00 | 57 | 1011.8 |
| 20260904012029 | 83 | 190 | 0.0 | 0.0 | 0.00 | 0.00 | 0.00 | 56 | 1011.7 |
| 20260904011610 | 84 | 190 | 0.0 | 3.5 | 0.00 | 0.00 | 0.00 | 55 | 1009.7 |
| 20260904011528 | 84 | 190 | 0.0 | 3.5 | 0.00 | 0.00 | 0.00 | 55 | 1011.6 |
| 20260904011028 | 84 | 190 | 0.0 | 4.3 | 0.00 | 0.00 | 0.00 | 55 | 1011.4 |
| 20260904010528 | 84 | 190 | 1.7 | 5.2 | 0.00 | 0.00 | 0.00 | 54 | 1011.3 |
| 20260904010107 | 84 | 190 | 2.6 | 5.2 | 0.00 | 0.00 | 0.00 | 53 | 1009.2 |
| 20260904010029 | 84 | 190 | 2.6 | 5.2 | 0.00 | 0.00 | 0.00 | 53 | 1011.1 |
| 20260904005528 | 84 | 190 | 1.7 | 4.3 | 0.00 | 0.00 | 0.00 | 54 | 1010.9 |
| 20260904005027 | 85 | 190 | 0.0 | 1.7 | 0.00 | 0.00 | 0.00 | 54 | 1010.8 |
| 20260904004603 | 85 | 190 | 0.0 | 2.6 | 0.00 | 0.00 | 0.00 | 53 | 1009.0 |
| 20260904004528 | 85 | 190 | 0.0 | 1.7 | 0.00 | 0.00 | 0.00 | 54 | 1010.8 |
| 20260904004028 | 85 | 190 | 0.0 | 2.6 | 0.00 | 0.00 | 0.00 | 53 | 1010.6 |
| 20260904003527 | 86 | 190 | 0.0 | 3.5 | 0.00 | 0.00 | 0.00 | 53 | 1010.6 |
| 20260904003102 | 86 | 0 | 1.7 | 3.5 | 0.00 | 0.00 | 0.00 | 52 | 1008.8 |
| 20260904003027 | 86 | 190 | 0.9 | 3.5 | 0.00 | 0.00 | 0.00 | 52 | 1010.6 |
| 20260904002527 | 87 | 190 | 0.0 | 6.1 | 0.00 | 0.00 | 0.00 | 52 | 1010.6 |
| 20260904002027 | 87 | 190 | 1.7 | 6.1 | 0.00 | 0.00 | 0.00 | 51 | 1010.6 |
| 20260904001607 | 88 | 190 | 1.7 | 7.0 | 0.00 | 0.00 | 0.00 | 50 | 1008.8 |
| 20260904001527 | 88 | 190 | 0.9 | 5.2 | 0.00 | 0.00 | 0.00 | 50 | 1010.5 |
| 20260904001027 | 88 | 190 | 1.7 | 7.0 | 0.00 | 0.00 | 0.00 | 49 | 1010.6 |
| 20260904000527 | 89 | 190 | 4.3 | 7.0 | 0.00 | 0.00 | 0.00 | 48 | 1010.5 |
| 20260904000110 | 90 | 190 | 3.5 | 7.0 | 0.00 | 0.00 | 0.00 | 47 | 1008.6 |
| 20260904000027 | 90 | 190 | 2.6 | 7.0 | 0.00 | 0.00 | 0.00 | 47 | 1010.4 |
| 20260903235525 | 90 | 190 | 2.6 | 7.0 | 0.00 | 0.00 | 0.00 | 47 | 1010.5 |
| 20260903235026 | 90 | 190 | 4.3 | 7.0 | 0.00 | 0.00 | 0.00 | 46 | 1010.5 |
| 20260903234622 | 91 | 190 | 1.7 | 7.0 | 0.00 | 0.00 | 0.00 | 45 | 1008.6 |
| 20260903234526 | 91 | 190 | 1.7 | 7.0 | 0.00 | 0.00 | 0.00 | 45 | 1010.5 |
| 20260903234026 | 91 | 190 | 2.6 | 5.2 | 0.00 | 0.00 | 0.00 | 46 | 1010.3 |
| 20260903233528 | 91 | 190 | 0.0 | 6.1 | 0.00 | 0.00 | 0.00 | 43 | 1010.2 |
| 20260903233103 | 91 | 190 | 2.6 | 8.7 | 0.00 | 0.00 | 0.00 | 41 | 1008.3 |
| 20260903233025 | 91 | 190 | 2.6 | 7.0 | 0.00 | 0.00 | 0.00 | 42 | 1010.2 |
| 20260903232525 | 91 | 190 | 1.7 | 8.7 | 0.00 | 0.00 | 0.00 | 43 | 1010.1 |
| 20260903232025 | 91 | 190 | 4.3 | 8.7 | 0.00 | 0.00 | 0.00 | 42 | 1010.1 |
| 20260903231617 | 92 | 190 | 2.6 | 9.6 | 0.00 | 0.00 | 0.00 | 41 | 1008.2 |
| 20260903231524 | 92 | 190 | 1.7 | 9.6 | 0.00 | 0.00 | 0.00 | 41 | 1010.2 |
| 20260903231024 | 92 | 190 | 3.5 | 9.6 | 0.00 | 0.00 | 0.00 | 41 | 1010.1 |
| 20260903230523 | 92 | 190 | 2.6 | 7.0 | 0.00 | 0.00 | 0.00 | 41 | 1010.1 |
| 20260903230106 | 93 | 190 | 0.9 | 7.8 | 0.00 | 0.00 | 0.00 | 39 | 1008.1 |
| 20260903230042 | 93 | 190 | 0.9 | 7.8 | 0.00 | 0.00 | 0.00 | 40 | 1010.1 |
| 20260903225524 | 93 | 190 | 3.5 | 7.8 | 0.00 | 0.00 | 0.00 | 39 | 1010.1 |
| 20260903225021 | 93 | 190 | 0.9 | 3.5 | 0.00 | 0.00 | 0.00 | 38 | 1010.1 |
| 20260903224601 | 93 | 190 | 0.0 | 7.0 | 0.00 | 0.00 | 0.00 | 38 | 1008.0 |
| 20260903224527 | 93 | 190 | 0.0 | 7.0 | 0.00 | 0.00 | 0.00 | 38 | 1010.0 |
| 20260903224020 | 94 | 190 | 2.6 | 7.0 | 0.00 | 0.00 | 0.00 | 37 | 1010.0 |
| 20260903223519 | 93 | 190 | 0.0 | 2.6 | 0.00 | 0.00 | 0.00 | 39 | 1009.9 |
| 20260903223112 | 93 | 0 | 0.0 | 3.5 | 0.00 | 0.00 | 0.00 | 38 | 1008.0 |
| 20260903223019 | 93 | 190 | 0.0 | 3.5 | 0.00 | 0.00 | 0.00 | 38 | 1009.9 |
| 20260903222517 | 93 | 190 | 0.9 | 3.5 | 0.00 | 0.00 | 0.00 | 38 | 1010.0 |
| 20260903222017 | 93 | 190 | 0.0 | 5.2 | 0.00 | 0.00 | 0.00 | 37 | 1010.1 |
| 20260903221604 | 93 | 190 | 1.7 | 5.2 | 0.00 | 0.00 | 0.00 | 37 | 1008.2 |
| 20260903221516 | 92 | 190 | 0.9 | 5.2 | 0.00 | 0.00 | 0.00 | 38 | 1010.2 |
| 20260903221019 | 92 | 190 | 1.7 | 4.3 | 0.00 | 0.00 | 0.00 | 37 | 1010.2 |
| 20260903220519 | 93 | 190 | 0.9 | 4.3 | 0.00 | 0.00 | 0.00 | 38 | 1010.3 |
| 20260903220105 | 93 | 190 | 2.6 | 5.2 | 0.00 | 0.00 | 0.00 | 38 | 1008.4 |
| 20260903220014 | 92 | 190 | 1.7 | 4.3 | 0.00 | 0.00 | 0.00 | 38 | 1010.5 |
| 20260903215513 | 92 | 190 | 0.9 | 5.2 | 0.00 | 0.00 | 0.00 | 38 | 1010.4 |
| 20260903215013 | 92 | 190 | 1.7 | 7.0 | 0.00 | 0.00 | 0.00 | 39 | 1010.5 |
| 20260903214605 | 92 | 190 | 3.5 | 7.0 | 0.00 | 0.00 | 0.00 | 38 | 1008.5 |
| 20260903214525 | 92 | 190 | 2.6 | 7.0 | 0.00 | 0.00 | 0.00 | 39 | 1010.6 |
| 20260903214011 | 92 | 190 | 0.9 | 5.2 | 0.00 | 0.00 | 0.00 | 39 | 1010.6 |
| 20260903213512 | 92 | 190 | 2.6 | 5.2 | 0.00 | 0.00 | 0.00 | 39 | 1010.6 |
| 20260903213107 | 92 | 190 | 0.0 | 4.3 | 0.00 | 0.00 | 0.00 | 40 | 1008.7 |
| 20260903213018 | 92 | 190 | 0.0 | 4.3 | 0.00 | 0.00 | 0.00 | 41 | 1010.7 |
| 20260903212509 | 92 | 190 | 0.9 | 4.3 | 0.00 | 0.00 | 0.00 | 40 | 1010.9 |
| 20260903212010 | 91 | 190 | 0.0 | 6.1 | 0.00 | 0.00 | 0.00 | 42 | 1011.0 |
| 20260903211604 | 91 | 190 | 2.6 | 6.1 | 0.00 | 0.00 | 0.00 | 39 | 1009.0 |
| 20260903211507 | 91 | 190 | 2.6 | 6.1 | 0.00 | 0.00 | 0.00 | 40 | 1011.1 |
| 20260903211006 | 92 | 190 | 0.9 | 4.3 | 0.00 | 0.00 | 0.00 | 40 | 1011.1 |
| 20260903210505 | 91 | 190 | 2.6 | 5.2 | 0.00 | 0.00 | 0.00 | 41 | 1011.3 |
| 20260903210105 | 92 | 190 | 0.9 | 7.0 | 0.00 | 0.00 | 0.00 | 41 | 1009.1 |
| 20260903210005 | 91 | 190 | 0.0 | 7.0 | 0.00 | 0.00 | 0.00 | 42 | 1011.3 |
| 20260903205504 | 92 | 190 | 2.6 | 7.0 | 0.00 | 0.00 | 0.00 | 42 | 1011.5 |
| 20260903205003 | 92 | 190 | 1.7 | 6.1 | 0.00 | 0.00 | 0.00 | 42 | 1011.5 |
| 20260903204604 | 91 | 0 | 0.0 | 4.3 | 0.00 | 0.00 | 0.00 | 41 | 1009.5 |
| 20260903204502 | 91 | 190 | 0.0 | 4.3 | 0.00 | 0.00 | 0.00 | 43 | 1011.7 |
| 20260903204001 | 91 | 190 | 1.7 | 4.3 | 0.00 | 0.00 | 0.00 | 42 | 1011.8 |
| 20260903203559 | 91 | 190 | 0.0 | 3.5 | 0.00 | 0.00 | 0.00 | 42 | 1011.9 |
| 20260903203105 | 91 | 0 | 0.0 | 7.0 | 0.00 | 0.00 | 0.00 | 44 | 1009.8 |
| 20260903203059 | 91 | 190 | 0.0 | 5.2 | 0.00 | 0.00 | 0.00 | 44 | 1012.1 |
| 20260903202558 | 90 | 190 | 0.9 | 7.0 | 0.00 | 0.00 | 0.00 | 43 | 1012.3 |
| 20260903202057 | 91 | 190 | 4.3 | 7.0 | 0.00 | 0.00 | 0.00 | 44 | 1012.4 |
| 20260903201612 | 91 | 190 | 0.9 | 7.8 | 0.00 | 0.00 | 0.00 | 44 | 1010.1 |
| 20260903201557 | 91 | 190 | 0.9 | 7.8 | 0.00 | 0.00 | 0.00 | 44 | 1012.5 |
| 20260903201055 | 91 | 190 | 3.5 | 7.8 | 0.00 | 0.00 | 0.00 | 44 | 1012.6 |
| 20260903200554 | 90 | 190 | 1.7 | 5.2 | 0.00 | 0.00 | 0.00 | 45 | 1012.7 |
| 20260903200104 | 90 | 190 | 3.5 | 5.2 | 0.00 | 0.00 | 0.00 | 45 | 1010.4 |
| 20260903200055 | 90 | 190 | 1.7 | 5.2 | 0.00 | 0.00 | 0.00 | 45 | 1012.9 |
| 20260903195555 | 90 | 190 | 2.6 | 5.2 | 0.00 | 0.00 | 0.00 | 44 | 1013.0 |
| 20260903195051 | 91 | 190 | 0.9 | 3.5 | 0.00 | 0.00 | 0.00 | 43 | 1013.1 |
| 20260903194601 | 90 | 0 | 0.0 | 7.0 | 0.00 | 0.00 | 0.00 | 43 | 1010.7 |
| 20260903194550 | 90 | 190 | 0.0 | 6.1 | 0.00 | 0.00 | 0.00 | 43 | 1013.2 |
| 20260903194050 | 90 | 190 | 2.6 | 7.0 | 0.00 | 0.00 | 0.00 | 42 | 1013.3 |
| 20260903193548 | 89 | 190 | 4.3 | 7.0 | 0.00 | 0.00 | 0.00 | 43 | 1013.4 |
| 20260903193107 | 89 | 190 | 3.5 | 7.0 | 0.00 | 0.00 | 0.00 | 45 | 1011.0 |
| 20260903193047 | 89 | 190 | 3.5 | 7.0 | 0.00 | 0.00 | 0.00 | 44 | 1013.6 |
| 20260903192550 | 89 | 190 | 0.9 | 7.0 | 0.00 | 0.00 | 0.00 | 46 | 1013.7 |
| 20260903192046 | 89 | 190 | 2.6 | 7.8 | 0.00 | 0.00 | 0.00 | 46 | 1013.9 |
| 20260903191602 | 88 | 190 | 3.5 | 7.0 | 0.00 | 0.00 | 0.00 | 50 | 1011.4 |
| 20260903191545 | 88 | 190 | 3.5 | 7.8 | 0.00 | 0.00 | 0.00 | 50 | 1013.9 |
| 20260903191045 | 88 | 190 | 1.7 | 5.2 | 0.00 | 0.00 | 0.00 | 51 | 1014.1 |
| 20260903190543 | 88 | 190 | 2.6 | 8.7 | 0.00 | 0.00 | 0.00 | 54 | 1014.2 |
| 20260903190106 | 88 | 190 | 3.5 | 7.0 | 0.00 | 0.00 | 0.00 | 53 | 1011.8 |
| 20260903190045 | 88 | 190 | 3.5 | 8.7 | 0.00 | 0.00 | 0.00 | 53 | 1014.4 |
| 20260903185541 | 89 | 190 | 1.7 | 6.1 | 0.00 | 0.00 | 0.00 | 53 | 1014.5 |
| 20260903185040 | 90 | 190 | 1.7 | 4.3 | 0.00 | 0.00 | 0.00 | 51 | 1014.6 |
| 20260903184601 | 90 | 190 | 0.9 | 4.3 | 0.00 | 0.00 | 0.00 | 42 | 1012.1 |
| 20260903184539 | 90 | 190 | 0.9 | 4.3 | 0.00 | 0.00 | 0.00 | 43 | 1014.6 |
| 20260903184038 | 89 | 190 | 0.9 | 4.3 | 0.00 | 0.00 | 0.00 | 45 | 1014.7 |
| 20260903183536 | 88 | 190 | 0.0 | 4.3 | 0.00 | 0.00 | 0.00 | 48 | 1014.7 |
| 20260903183102 | 88 | 190 | 0.9 | 3.5 | 0.00 | 0.00 | 0.00 | 48 | 1012.2 |
| 20260903183035 | 88 | 190 | 0.0 | 3.5 | 0.00 | 0.00 | 0.00 | 49 | 1014.8 |
| 20260903182535 | 88 | 190 | 0.0 | 7.0 | 0.00 | 0.00 | 0.00 | 47 | 1015.0 |
| 20260903182033 | 87 | 190 | 1.7 | 7.0 | 0.00 | 0.00 | 0.00 | 47 | 1015.2 |
| 20260903181600 | 87 | 190 | 1.7 | 6.1 | 0.00 | 0.00 | 0.00 | 50 | 1012.6 |
| 20260903181530 | 87 | 190 | 2.6 | 6.1 | 0.00 | 0.00 | 0.00 | 50 | 1015.3 |
| 20260903181029 | 87 | 190 | 1.7 | 6.1 | 0.00 | 0.00 | 0.00 | 49 | 1015.4 |
| 20260903180528 | 86 | 190 | 2.6 | 6.1 | 0.00 | 0.00 | 0.00 | 50 | 1015.5 |
| 20260903180124 | 86 | 0 | 3.5 | 6.1 | 0.00 | 0.00 | 0.00 | 50 | 1013.0 |
| 20260903180048 | 86 | 190 | 1.7 | 6.1 | 0.00 | 0.00 | 0.00 | 51 | 1015.5 |
| 20260903175525 | 86 | 190 | 1.7 | 7.0 | 0.00 | 0.00 | 0.00 | 55 | 1015.6 |
| 20260903175024 | 86 | 190 | 0.9 | 7.0 | 0.00 | 0.00 | 0.00 | 57 | 1015.7 |
| 20260903174601 | 86 | 190 | 2.6 | 7.0 | 0.00 | 0.00 | 0.00 | 54 | 1013.3 |
| 20260903174524 | 86 | 190 | 3.5 | 7.0 | 0.00 | 0.00 | 0.00 | 55 | 1015.7 |
| 20260903174026 | 86 | 190 | 0.9 | 7.0 | 0.00 | 0.00 | 0.00 | 56 | 1015.9 |
| 20260903173521 | 86 | 190 | 1.7 | 7.0 | 0.00 | 0.00 | 0.00 | 56 | 1016.0 |
| 20260903173102 | 85 | 190 | 4.3 | 7.0 | 0.00 | 0.00 | 0.00 | 56 | 1013.7 |
| 20260903173023 | 85 | 190 | 3.5 | 7.0 | 0.00 | 0.00 | 0.00 | 58 | 1016.2 |
| 20260903172520 | 85 | 190 | 2.6 | 7.0 | 0.00 | 0.00 | 0.00 | 58 | 1016.3 |
| 20260903172018 | 85 | 190 | 1.7 | 6.1 | 0.00 | 0.00 | 0.00 | 58 | 1016.3 |
| 20260903171605 | 85 | 190 | 3.5 | 8.7 | 0.00 | 0.00 | 0.00 | 59 | 1013.9 |
| 20260903171517 | 84 | 190 | 2.6 | 8.7 | 0.00 | 0.00 | 0.00 | 60 | 1016.5 |
| 20260903171017 | 84 | 190 | 3.5 | 8.7 | 0.00 | 0.00 | 0.00 | 58 | 1016.6 |
| 20260903170515 | 84 | 190 | 2.6 | 5.2 | 0.00 | 0.00 | 0.00 | 61 | 1016.6 |
| 20260903170107 | 84 | 190 | 1.7 | 7.0 | 0.00 | 0.00 | 0.00 | 61 | 1014.1 |
| 20260903170021 | 84 | 190 | 2.6 | 5.2 | 0.00 | 0.00 | 0.00 | 59 | 1016.7 |
| 20260903165513 | 84 | 190 | 1.7 | 7.0 | 0.00 | 0.00 | 0.00 | 61 | 1016.8 |
| 20260903165012 | 84 | 190 | 1.7 | 6.1 | 0.00 | 0.00 | 0.00 | 62 | 1016.9 |
| 20260903164610 | 83 | 190 | 2.6 | 5.2 | 0.00 | 0.00 | 0.00 | 64 | 1014.3 |
| 20260903164510 | 83 | 190 | 1.7 | 5.2 | 0.00 | 0.00 | 0.00 | 64 | 1017.0 |
| 20260903164012 | 83 | 190 | 0.9 | 4.3 | 0.00 | 0.00 | 0.00 | 63 | 1017.1 |
| 20260903163508 | 83 | 190 | 0.9 | 3.5 | 0.00 | 0.00 | 0.00 | 64 | 1017.1 |
| 20260903163102 | 83 | 190 | 0.0 | 3.5 | 0.00 | 0.00 | 0.00 | 64 | 1014.4 |
| 20260903163010 | 82 | 190 | 0.0 | 3.5 | 0.00 | 0.00 | 0.00 | 65 | 1017.2 |
| 20260903162507 | 82 | 190 | 0.0 | 3.5 | 0.00 | 0.00 | 0.00 | 67 | 1017.2 |
| 20260903162006 | 82 | 190 | 1.7 | 3.5 | 0.00 | 0.00 | 0.00 | 67 | 1017.3 |
| 20260903161607 | 81 | 190 | 0.0 | 2.6 | 0.00 | 0.00 | 0.00 | 68 | 1014.5 |
| 20260903161504 | 81 | 190 | 0.0 | 2.6 | 0.00 | 0.00 | 0.00 | 69 | 1017.4 |
| 20260903161003 | 81 | 190 | 0.9 | 2.6 | 0.00 | 0.00 | 0.00 | 69 | 1017.4 |
| 20260903160501 | 80 | 190 | 0.0 | 0.0 | 0.00 | 0.00 | 0.00 | 69 | 1017.4 |
| 20260903160111 | 80 | 0 | 0.0 | 2.6 | 0.00 | 0.00 | 0.00 | 68 | 1014.6 |
| 20260903160101 | 80 | 190 | 0.0 | 2.6 | 0.00 | 0.00 | 0.00 | 69 | 1017.4 |
| 20260903155558 | 79 | 190 | 0.9 | 2.6 | 0.00 | 0.00 | 0.00 | 69 | 1017.5 |
| 20260903155200 | 79 | 190 | 0.0 | 1.7 | 0.00 | 0.00 | 0.00 | 69 | 1017.6 |
| 20260903154605 | 78 | 0 | 0.0 | 0.0 | 0.00 | 0.00 | 0.00 | 71 | 1014.6 |
| 20260903154559 | 78 | 190 | 0.0 | 0.0 | 0.00 | 0.00 | 0.00 | 71 | 1017.5 |
| 20260903154055 | 78 | 190 | 0.0 | 0.0 | 0.00 | 0.00 | 0.00 | 71 | 1017.5 |
| 20260903153554 | 78 | 190 | 0.0 | 0.0 | 0.00 | 0.00 | 0.00 | 72 | 1017.5 |
| 20260903153112 | 77 | 0 | 0.0 | 0.0 | 0.00 | 0.00 | 0.00 | 72 | 1014.6 |
| 20260903153053 | 77 | 190 | 0.0 | 0.0 | 0.00 | 0.00 | 0.00 | 73 | 1017.6 |
| 20260903152555 | 77 | 190 | 0.0 | 0.0 | 0.00 | 0.00 | 0.00 | 73 | 1017.7 |
| 20260903152051 | 77 | 190 | 0.0 | 0.0 | 0.00 | 0.00 | 0.00 | 75 | 1017.7 |
| 20260903151605 | 76 | 0 | 0.0 | 0.9 | 0.00 | 0.00 | 0.00 | 75 | 1014.7 |
| 20260903151552 | 76 | 190 | 0.0 | 0.9 | 0.00 | 0.00 | 0.00 | 76 | 1017.8 |
| 20260903151050 | 75 | 190 | 0.0 | 0.9 | 0.00 | 0.00 | 0.00 | 76 | 1017.9 |
| 20260903150547 | 75 | 190 | 0.0 | 0.0 | 0.00 | 0.00 | 0.00 | 79 | 1017.9 |
| 20260903150109 | 74 | 0 | 0.0 | 0.0 | 0.00 | 0.00 | 0.00 | 78 | 1014.9 |
| 20260903150046 | 74 | 190 | 0.0 | 0.0 | 0.00 | 0.00 | 0.00 | 78 | 1018.1 |
| 20260903145547 | 74 | 190 | 0.0 | 0.0 | 0.00 | 0.00 | 0.00 | 81 | 1018.0 |
| 20260903145042 | 74 | 190 | 0.0 | 0.0 | 0.00 | 0.00 | 0.00 | 82 | 1018.0 |
| 20260903144608 | 73 | 0 | 0.0 | 0.0 | 0.00 | 0.00 | 0.00 | 82 | 1014.9 |
| 20260903144543 | 73 | 190 | 0.0 | 0.0 | 0.00 | 0.00 | 0.00 | 82 | 1018.0 |
| 20260903144039 | 73 | 190 | 0.0 | 0.0 | 0.00 | 0.00 | 0.00 | 83 | 1018.0 |
| 20260903143538 | 72 | 190 | 0.0 | 0.0 | 0.00 | 0.00 | 0.00 | 86 | 1018.0 |
| 20260903143105 | 72 | 0 | 0.0 | 0.0 | 0.00 | 0.00 | 0.00 | 86 | 1014.9 |
| 20260903143038 | 72 | 190 | 0.0 | 0.0 | 0.00 | 0.00 | 0.00 | 86 | 1017.9 |
| 20260903142539 | 71 | 190 | 0.0 | 0.0 | 0.00 | 0.00 | 0.00 | 86 | 1018.0 |
| 20260903142037 | 71 | 190 | 0.0 | 0.9 | 0.00 | 0.00 | 0.00 | 89 | 1018.1 |
| 20260903141602 | 70 | 0 | 0.0 | 0.9 | 0.00 | 0.00 | 0.00 | 89 | 1015.0 |
| 20260903141533 | 70 | 190 | 0.0 | 0.9 | 0.00 | 0.00 | 0.00 | 89 | 1018.1 |
| 20260903141032 | 70 | 190 | 0.0 | 0.0 | 0.00 | 0.00 | 0.00 | 91 | 1018.1 |
| 20260903140531 | 69 | 190 | 0.0 | 0.0 | 0.00 | 0.00 | 0.00 | 91 | 1017.9 |
| 20260903140105 | 69 | 0 | 0.0 | 2.6 | 0.00 | 0.00 | 0.00 | 91 | 1014.8 |
| 20260903140048 | 69 | 190 | 0.0 | 1.7 | 0.00 | 0.00 | 0.00 | 91 | 1017.8 |
| 20260903135530 | 69 | 190 | 0.0 | 2.6 | 0.00 | 0.00 | 0.00 | 92 | 1017.8 |
| 20260903135030 | 68 | 190 | 0.0 | 1.7 | 0.00 | 0.00 | 0.00 | 92 | 1017.8 |
| 20260903134601 | 68 | 0 | 0.0 | 0.0 | 0.00 | 0.00 | 0.00 | 93 | 1014.7 |
| 20260903134533 | 68 | 190 | 0.0 | 0.0 | 0.00 | 0.00 | 0.00 | 93 | 1017.7 |
| 20260903134031 | 67 | 190 | 0.0 | 0.0 | 0.00 | 0.00 | 0.00 | 94 | 1017.8 |
| 20260903133530 | 67 | 190 | 0.0 | 0.0 | 0.00 | 0.00 | 0.00 | 94 | 1017.8 |
| 20260903133111 | 67 | 0 | 0.0 | 0.0 | 0.00 | 0.00 | 0.00 | 93 | 1014.7 |
| 20260903133030 | 67 | 190 | 0.0 | 0.0 | 0.00 | 0.00 | 0.00 | 94 | 1017.8 |
| 20260903132529 | 67 | 190 | 0.0 | 0.0 | 0.00 | 0.00 | 0.00 | 94 | 1017.8 |
| 20260903132029 | 67 | 190 | 0.0 | 0.0 | 0.00 | 0.00 | 0.00 | 94 | 1017.9 |
| 20260903131606 | 67 | 0 | 0.0 | 0.0 | 0.00 | 0.00 | 0.00 | 94 | 1014.9 |
| 20260903131529 | 67 | 190 | 0.0 | 0.0 | 0.00 | 0.00 | 0.00 | 94 | 1017.9 |
| 20260903131029 | 67 | 190 | 0.0 | 0.0 | 0.00 | 0.00 | 0.00 | 95 | 1017.9 |
| 20260903130528 | 67 | 190 | 0.0 | 0.0 | 0.00 | 0.00 | 0.00 | 95 | 1017.9 |
| 20260903130131 | 67 | 0 | 0.0 | 0.0 | 0.00 | 0.00 | 0.00 | 94 | 1014.9 |
| 20260903130031 | 67 | 190 | 0.0 | 0.0 | 0.00 | 0.00 | 0.00 | 95 | 1017.9 |
| 20260903125528 | 66 | 190 | 0.0 | 0.0 | 0.00 | 0.00 | 0.00 | 95 | 1017.9 |
| 20260903125028 | 66 | 190 | 0.0 | 0.0 | 0.00 | 0.00 | 0.00 | 95 | 1017.8 |
| 20260903124607 | 66 | 0 | 0.0 | 0.0 | 0.00 | 0.00 | 0.00 | 94 | 1014.8 |
| 20260903124527 | 66 | 190 | 0.0 | 0.0 | 0.00 | 0.00 | 0.00 | 94 | 1017.8 |
| 20260903124028 | 66 | 190 | 0.0 | 0.0 | 0.00 | 0.00 | 0.00 | 94 | 1017.7 |
| 20260903123527 | 66 | 190 | 0.0 | 0.9 | 0.00 | 0.00 | 0.00 | 94 | 1017.7 |
| 20260903123109 | 66 | 0 | 0.0 | 0.9 | 0.00 | 0.00 | 0.00 | 94 | 1014.5 |
| 20260903123035 | 66 | 190 | 0.0 | 0.9 | 0.00 | 0.00 | 0.00 | 94 | 1017.6 |
| 20260903122527 | 66 | 190 | 0.0 | 0.0 | 0.00 | 0.00 | 0.00 | 94 | 1017.5 |
| 20260903122025 | 67 | 190 | 0.0 | 0.0 | 0.00 | 0.00 | 0.00 | 94 | 1017.5 |
| 20260903121605 | 67 | 0 | 0.0 | 0.0 | 0.00 | 0.00 | 0.00 | 94 | 1014.3 |
| 20260903121528 | 67 | 190 | 0.0 | 0.0 | 0.00 | 0.00 | 0.00 | 94 | 1017.3 |
| 20260903121025 | 67 | 190 | 0.0 | 0.0 | 0.00 | 0.00 | 0.00 | 94 | 1017.3 |
| 20260903120525 | 67 | 190 | 0.0 | 0.0 | 0.00 | 0.00 | 0.00 | 95 | 1017.2 |
| 20260903120106 | 67 | 0 | 0.0 | 0.0 | 0.00 | 0.00 | 0.00 | 94 | 1014.2 |
| 20260903120025 | 67 | 190 | 0.0 | 0.0 | 0.00 | 0.00 | 0.00 | 95 | 1017.3 |
| 20260903115526 | 67 | 190 | 0.0 | 0.0 | 0.00 | 0.00 | 0.00 | 95 | 1017.3 |
| 20260903115024 | 67 | 190 | 0.0 | 0.0 | 0.00 | 0.00 | 0.00 | 94 | 1017.2 |
| 20260903114607 | 67 | 0 | 0.0 | 0.0 | 0.00 | 0.00 | 0.00 | 94 | 1014.0 |
| 20260903114530 | 67 | 190 | 0.0 | 0.0 | 0.00 | 0.00 | 0.00 | 94 | 1017.1 |
| 20260903114022 | 67 | 190 | 0.0 | 0.0 | 0.00 | 0.00 | 0.00 | 94 | 1017.1 |
| 20260903113522 | 67 | 190 | 0.0 | 0.0 | 0.00 | 0.00 | 0.00 | 94 | 1017.1 |
| 20260903113106 | 67 | 0 | 0.0 | 0.0 | 0.00 | 0.00 | 0.00 | 93 | 1013.9 |
| 20260903113023 | 67 | 190 | 0.0 | 0.0 | 0.00 | 0.00 | 0.00 | 94 | 1017.0 |
| 20260903112524 | 67 | 190 | 0.0 | 0.0 | 0.00 | 0.00 | 0.00 | 94 | 1017.0 |
| 20260903112021 | 67 | 190 | 0.0 | 0.9 | 0.00 | 0.00 | 0.00 | 94 | 1017.0 |
| 20260903111621 | 67 | 0 | 0.0 | 0.9 | 0.00 | 0.00 | 0.00 | 93 | 1013.9 |
| 20260903111521 | 67 | 190 | 0.0 | 0.9 | 0.00 | 0.00 | 0.00 | 94 | 1017.0 |
| 20260903111020 | 67 | 190 | 0.0 | 0.0 | 0.00 | 0.00 | 0.00 | 94 | 1017.0 |
| 20260903110520 | 67 | 190 | 0.0 | 0.0 | 0.00 | 0.00 | 0.00 | 94 | 1016.9 |
| 20260903110127 | 68 | 0 | 0.0 | 0.0 | 0.00 | 0.00 | 0.00 | 94 | 1013.8 |
| 20260903110019 | 67 | 190 | 0.0 | 0.0 | 0.00 | 0.00 | 0.00 | 94 | 1017.0 |
| 20260903105518 | 67 | 190 | 0.0 | 0.0 | 0.00 | 0.00 | 0.00 | 94 | 1017.0 |
| 20260903105018 | 68 | 190 | 0.0 | 0.0 | 0.00 | 0.00 | 0.00 | 94 | 1016.9 |
| 20260903104605 | 68 | 0 | 0.0 | 0.0 | 0.00 | 0.00 | 0.00 | 93 | 1013.8 |
| 20260903104518 | 68 | 190 | 0.0 | 0.0 | 0.00 | 0.00 | 0.00 | 94 | 1017.0 |
| 20260903104018 | 68 | 190 | 0.0 | 0.0 | 0.00 | 0.00 | 0.00 | 94 | 1017.0 |
| 20260903103517 | 68 | 190 | 0.0 | 0.0 | 0.00 | 0.00 | 0.00 | 94 | 1017.0 |
| 20260903103104 | 68 | 0 | 0.0 | 0.0 | 0.00 | 0.00 | 0.00 | 93 | 1013.8 |
| 20260903103017 | 68 | 190 | 0.0 | 0.0 | 0.00 | 0.00 | 0.00 | 94 | 1017.0 |
| 20260903102517 | 68 | 190 | 0.0 | 0.0 | 0.00 | 0.00 | 0.00 | 94 | 1017.0 |
| 20260903102022 | 68 | 190 | 0.0 | 0.0 | 0.00 | 0.00 | 0.00 | 94 | 1017.0 |
| 20260903101611 | 68 | 0 | 0.0 | 0.0 | 0.00 | 0.00 | 0.00 | 93 | 1013.8 |
| 20260903101517 | 68 | 190 | 0.0 | 0.0 | 0.00 | 0.00 | 0.00 | 94 | 1017.0 |
| 20260903101019 | 68 | 190 | 0.0 | 0.0 | 0.00 | 0.00 | 0.00 | 94 | 1016.9 |
| 20260903100517 | 68 | 190 | 0.0 | 0.0 | 0.00 | 0.00 | 0.00 | 94 | 1016.8 |
| 20260903100110 | 68 | 0 | 0.0 | 0.0 | 0.00 | 0.00 | 0.00 | 94 | 1013.7 |
| 20260903100026 | 68 | 190 | 0.0 | 0.0 | 0.00 | 0.00 | 0.00 | 94 | 1016.8 |
| 20260903095515 | 68 | 190 | 0.0 | 0.0 | 0.00 | 0.00 | 0.00 | 94 | 1016.8 |
| 20260903095015 | 68 | 190 | 0.0 | 1.7 | 0.00 | 0.00 | 0.00 | 94 | 1016.8 |
| 20260903094604 | 68 | 0 | 0.0 | 1.7 | 0.00 | 0.00 | 0.00 | 93 | 1013.6 |
| 20260903094515 | 68 | 190 | 0.0 | 1.7 | 0.00 | 0.00 | 0.00 | 94 | 1016.8 |
| 20260903094014 | 68 | 190 | 0.0 | 0.0 | 0.00 | 0.00 | 0.00 | 93 | 1016.7 |
| 20260903093514 | 68 | 190 | 0.0 | 0.0 | 0.00 | 0.00 | 0.00 | 93 | 1016.8 |
| 20260903093105 | 68 | 0 | 0.0 | 0.0 | 0.00 | 0.00 | 0.00 | 93 | 1013.7 |
| 20260903093035 | 68 | 190 | 0.0 | 0.0 | 0.00 | 0.00 | 0.00 | 93 | 1016.8 |
| 20260903092512 | 68 | 190 | 0.0 | 0.0 | 0.00 | 0.00 | 0.00 | 94 | 1016.9 |
| 20260903092012 | 68 | 190 | 0.0 | 0.0 | 0.00 | 0.00 | 0.00 | 94 | 1017.0 |
| 20260903091614 | 68 | 0 | 0.0 | 0.0 | 0.00 | 0.00 | 0.00 | 93 | 1013.9 |
| 20260903091512 | 68 | 190 | 0.0 | 0.0 | 0.00 | 0.00 | 0.00 | 93 | 1017.0 |
| 20260903091011 | 68 | 190 | 0.0 | 0.0 | 0.00 | 0.00 | 0.00 | 93 | 1017.1 |
| 20260903090515 | 68 | 190 | 0.0 | 0.0 | 0.00 | 0.00 | 0.00 | 93 | 1017.1 |
| 20260903090108 | 68 | 0 | 0.0 | 0.0 | 0.00 | 0.00 | 0.00 | 93 | 1013.9 |
| 20260903090011 | 68 | 190 | 0.0 | 0.0 | 0.00 | 0.00 | 0.00 | 93 | 1017.1 |
| 20260903085510 | 68 | 190 | 0.0 | 0.0 | 0.00 | 0.00 | 0.00 | 93 | 1017.1 |
| 20260903085009 | 68 | 190 | 0.0 | 0.0 | 0.00 | 0.00 | 0.00 | 93 | 1017.2 |
| 20260903084604 | 68 | 0 | 0.0 | 0.0 | 0.00 | 0.00 | 0.00 | 93 | 1014.0 |
| 20260903084517 | 68 | 190 | 0.0 | 0.0 | 0.00 | 0.00 | 0.00 | 93 | 1017.2 |
| 20260903084008 | 68 | 190 | 0.0 | 0.9 | 0.00 | 0.00 | 0.00 | 93 | 1017.1 |
| 20260903083508 | 68 | 190 | 0.0 | 0.9 | 0.00 | 0.00 | 0.00 | 93 | 1017.2 |
| 20260903083118 | 68 | 0 | 0.0 | 0.0 | 0.00 | 0.00 | 0.00 | 92 | 1014.0 |
| 20260903083008 | 68 | 190 | 0.0 | 0.0 | 0.00 | 0.00 | 0.00 | 92 | 1017.2 |
| 20260903082507 | 68 | 190 | 0.0 | 0.0 | 0.00 | 0.00 | 0.00 | 92 | 1017.1 |
| 20260903082007 | 69 | 190 | 0.0 | 0.0 | 0.00 | 0.00 | 0.00 | 92 | 1017.2 |
| 20260903081623 | 69 | 0 | 0.0 | 0.0 | 0.00 | 0.00 | 0.00 | 92 | 1014.0 |
| 20260903081508 | 69 | 190 | 0.0 | 0.0 | 0.00 | 0.00 | 0.00 | 92 | 1017.1 |
| 20260903081006 | 69 | 190 | 0.0 | 0.0 | 0.00 | 0.00 | 0.00 | 92 | 1017.3 |
| 20260903080506 | 69 | 190 | 0.0 | 0.0 | 0.00 | 0.00 | 0.00 | 92 | 1017.4 |
| 20260903080109 | 69 | 0 | 0.0 | 0.0 | 0.00 | 0.00 | 0.00 | 92 | 1014.3 |
| 20260903080005 | 69 | 190 | 0.0 | 0.0 | 0.00 | 0.00 | 0.00 | 92 | 1017.4 |
| 20260903075505 | 69 | 190 | 0.0 | 0.0 | 0.00 | 0.01 | 0.00 | 92 | 1017.3 |
| 20260903075003 | 69 | 190 | 0.0 | 0.0 | 0.00 | 0.01 | 0.00 | 92 | 1017.5 |
| 20260903074611 | 69 | 0 | 0.0 | 0.0 | 0.00 | 0.00 | 0.00 | 92 | 1014.2 |
| 20260903074508 | 69 | 190 | 0.0 | 0.0 | 0.00 | 0.01 | 0.00 | 92 | 1017.4 |
| 20260903074003 | 68 | 190 | 0.0 | 1.7 | 0.00 | 0.01 | 0.00 | 93 | 1017.4 |
| 20260903073503 | 68 | 190 | 0.0 | 1.7 | 0.00 | 0.01 | 0.00 | 93 | 1017.5 |
| 20260903073119 | 68 | 0 | 0.0 | 1.7 | 0.00 | 0.00 | 0.00 | 93 | 1014.5 |
| 20260903073002 | 68 | 190 | 0.0 | 1.7 | 0.00 | 0.01 | 0.00 | 93 | 1017.6 |
| 20260903072502 | 68 | 190 | 0.0 | 1.7 | 0.00 | 0.01 | 0.00 | 93 | 1017.7 |
| 20260903072003 | 68 | 190 | 0.0 | 1.7 | 0.00 | 0.01 | 0.00 | 93 | 1017.6 |
| 20260903071603 | 68 | 190 | 0.0 | 1.7 | 0.00 | 0.00 | 0.00 | 93 | 1014.5 |
| 20260903071504 | 68 | 190 | 0.0 | 1.7 | 0.00 | 0.01 | 0.00 | 93 | 1017.5 |
| 20260903071002 | 68 | 190 | 0.0 | 0.0 | 0.00 | 0.01 | 0.00 | 93 | 1017.6 |
| 20260903070502 | 68 | 190 | 0.0 | 1.7 | 0.00 | 0.01 | 0.00 | 93 | 1017.6 |
| 20260903070111 | 69 | 0 | 0.0 | 2.6 | 0.00 | 0.00 | 0.00 | 92 | 1014.5 |
| 20260903070101 | 68 | 190 | 0.0 | 1.7 | 0.00 | 0.01 | 0.00 | 93 | 1017.6 |
| 20260903065602 | 69 | 190 | 0.0 | 2.6 | 0.00 | 0.04 | 0.00 | 93 | 1017.6 |
| 20260903065058 | 69 | 190 | 0.9 | 2.6 | 0.00 | 0.04 | 0.00 | 93 | 1017.6 |
| 20260903064605 | 69 | 0 | 0.0 | 1.7 | 0.00 | 0.03 | 0.00 | 92 | 1014.4 |
| 20260903064558 | 69 | 190 | 0.0 | 1.7 | 0.00 | 0.04 | 0.00 | 93 | 1017.5 |
| 20260903064057 | 69 | 190 | 0.0 | 1.7 | 0.00 | 0.04 | 0.00 | 93 | 1017.6 |
| 20260903063557 | 69 | 190 | 0.0 | 0.0 | 0.00 | 0.04 | 0.00 | 93 | 1017.5 |
| 20260903063103 | 69 | 0 | 0.0 | 0.0 | 0.00 | 0.03 | 0.00 | 92 | 1014.5 |
| 20260903063056 | 69 | 190 | 0.0 | 0.0 | 0.00 | 0.04 | 0.00 | 93 | 1017.5 |
| 20260903062555 | 69 | 190 | 0.0 | 0.0 | 0.00 | 0.04 | 0.00 | 93 | 1017.7 |
| 20260903062054 | 69 | 190 | 0.0 | 0.0 | 0.00 | 0.04 | 0.00 | 92 | 1017.8 |
| 20260903061609 | 69 | 0 | 0.0 | 0.0 | 0.00 | 0.03 | 0.00 | 92 | 1014.8 |
| 20260903061553 | 69 | 190 | 0.0 | 0.0 | 0.00 | 0.04 | 0.00 | 92 | 1017.9 |
| 20260903061051 | 69 | 190 | 0.0 | 0.0 | 0.00 | 0.04 | 0.00 | 92 | 1017.9 |
| 20260903060551 | 69 | 190 | 0.0 | 0.0 | 0.00 | 0.04 | 0.00 | 92 | 1018.0 |
| 20260903060108 | 69 | 0 | 0.0 | 0.0 | 0.00 | 0.03 | 0.00 | 92 | 1014.9 |
| 20260903060051 | 69 | 190 | 0.0 | 0.0 | 0.00 | 0.04 | 0.00 | 92 | 1017.9 |
| 20260903055549 | 69 | 190 | 0.0 | 0.0 | 0.00 | 0.18 | 0.04 | 92 | 1017.8 |
| 20260903055049 | 69 | 190 | 0.0 | 0.0 | 0.00 | 0.18 | 0.04 | 92 | 1017.8 |
| 20260903054606 | 69 | 0 | 0.0 | 2.6 | 0.00 | 0.18 | 0.03 | 91 | 1014.9 |
| 20260903054550 | 69 | 190 | 0.0 | 1.7 | 0.00 | 0.18 | 0.04 | 92 | 1018.0 |
| 20260903054051 | 69 | 190 | 0.0 | 3.5 | 0.00 | 0.18 | 0.04 | 92 | 1018.1 |
| 20260903053549 | 69 | 190 | 0.9 | 3.5 | 0.00 | 0.18 | 0.04 | 92 | 1018.0 |
| 20260903053113 | 70 | 190 | 0.9 | 2.6 | 0.00 | 0.18 | 0.03 | 91 | 1014.9 |
| 20260903053049 | 70 | 190 | 0.9 | 3.5 | 0.00 | 0.18 | 0.04 | 92 | 1018.0 |
| 20260903052549 | 70 | 190 | 0.0 | 0.0 | 0.00 | 0.18 | 0.04 | 91 | 1017.8 |
| 20260903052048 | 70 | 190 | 0.0 | 0.0 | 0.00 | 0.18 | 0.04 | 91 | 1017.9 |
| 20260903051611 | 70 | 0 | 0.0 | 0.0 | 0.00 | 0.18 | 0.03 | 91 | 1014.9 |
| 20260903051554 | 70 | 190 | 0.0 | 0.0 | 0.00 | 0.18 | 0.04 | 91 | 1017.9 |
| 20260903051050 | 70 | 190 | 0.0 | 0.0 | 0.00 | 0.18 | 0.04 | 91 | 1017.8 |
| 20260903050550 | 70 | 190 | 0.0 | 0.0 | 0.00 | 0.18 | 0.04 | 91 | 1017.8 |
| 20260903050111 | 70 | 0 | 0.0 | 2.6 | 0.00 | 0.18 | 0.03 | 91 | 1014.9 |
| 20260903050049 | 70 | 190 | 0.0 | 2.6 | 0.00 | 0.18 | 0.04 | 91 | 1017.9 |
| 20260903045548 | 70 | 190 | 0.9 | 2.6 | 0.00 | 0.28 | 0.04 | 91 | 1017.9 |
| 20260903045050 | 70 | 190 | 0.0 | 0.0 | 0.00 | 0.28 | 0.04 | 91 | 1018.0 |
| 20260903044607 | 71 | 0 | 0.0 | 0.9 | 0.00 | 0.29 | 0.03 | 90 | 1015.0 |
| 20260903044549 | 70 | 190 | 0.0 | 0.0 | 0.00 | 0.28 | 0.04 | 90 | 1017.9 |
| 20260903044048 | 71 | 190 | 0.0 | 0.9 | 0.00 | 0.28 | 0.04 | 90 | 1017.8 |
| 20260903043547 | 71 | 190 | 0.0 | 0.9 | 0.00 | 0.28 | 0.04 | 90 | 1017.6 |
| 20260903043107 | 71 | 0 | 0.0 | 0.0 | 0.00 | 0.29 | 0.03 | 90 | 1014.9 |
| 20260903043047 | 71 | 190 | 0.0 | 0.0 | 0.00 | 0.28 | 0.04 | 90 | 1017.7 |
| 20260903042547 | 71 | 190 | 0.0 | 0.0 | 0.00 | 0.28 | 0.04 | 90 | 1017.7 |
| 20260903042047 | 71 | 190 | 0.0 | 0.0 | 0.00 | 0.28 | 0.04 | 90 | 1017.6 |
| 20260903041608 | 71 | 0 | 0.0 | 0.0 | 0.00 | 0.29 | 0.03 | 89 | 1014.6 |
| 20260903041547 | 71 | 190 | 0.0 | 0.0 | 0.00 | 0.28 | 0.04 | 90 | 1017.4 |
| 20260903041046 | 71 | 190 | 0.0 | 0.0 | 0.00 | 0.28 | 0.04 | 89 | 1017.3 |
| 20260903040547 | 71 | 190 | 0.0 | 0.0 | 0.00 | 0.28 | 0.04 | 89 | 1017.3 |
| 20260903040108 | 71 | 0 | 0.0 | 0.0 | 0.00 | 0.29 | 0.03 | 89 | 1014.7 |
| 20260903040047 | 71 | 190 | 0.0 | 0.0 | 0.00 | 0.28 | 0.04 | 89 | 1017.4 |
| 20260903035545 | 71 | 190 | 0.0 | 0.0 | 0.00 | 0.94 | 0.04 | 89 | 1017.4 |
| 20260903035045 | 72 | 190 | 0.0 | 0.0 | 0.00 | 0.94 | 0.04 | 89 | 1017.4 |
| 20260903034559 | 72 | 0 | 0.0 | 0.0 | 0.00 | 0.94 | 0.03 | 88 | 1014.6 |
| 20260903034545 | 72 | 190 | 0.0 | 0.0 | 0.00 | 0.94 | 0.04 | 88 | 1017.3 |
| 20260903034046 | 72 | 190 | 0.0 | 0.0 | 0.00 | 0.94 | 0.04 | 89 | 1017.2 |
| 20260903033545 | 72 | 190 | 0.0 | 0.0 | 0.00 | 0.94 | 0.04 | 88 | 1017.1 |
| 20260903033113 | 72 | 0 | 0.0 | 0.0 | 0.00 | 0.94 | 0.03 | 88 | 1014.4 |
| 20260903033045 | 72 | 190 | 0.0 | 0.0 | 0.00 | 0.94 | 0.04 | 88 | 1017.0 |
| 20260903032545 | 72 | 190 | 0.0 | 0.0 | 0.00 | 0.94 | 0.04 | 87 | 1016.8 |
| 20260903032045 | 73 | 190 | 0.0 | 0.0 | 0.00 | 0.94 | 0.04 | 87 | 1016.8 |
| 20260903031604 | 73 | 0 | 0.0 | 0.0 | 0.00 | 0.94 | 0.03 | 86 | 1014.1 |
| 20260903031545 | 73 | 190 | 0.0 | 0.0 | 0.00 | 0.94 | 0.04 | 87 | 1016.7 |